sensor_id;sensor_type;location;lat;lon;timestamp;P1;durP1;ratioP1;P2;durP2;ratioP2
20497;SDS011;10407;53.238;10.448;2022-12-18T00:01:24;31.77;;;15.50;;
20497;SDS011;10407;53.238;10.448;2022-12-18T00:06:48;27.95;;;16.07;;
20497;SDS011;10407;53.238;10.448;2022-12-18T00:09:16;29.60;;;16.77;;
20497;SDS011;10407;53.238;10.448;2022-12-18T00:11:44;31.37;;;18.50;;
20497;SDS011;10407;53.238;10.448;2022-12-18T00:14:12;41.95;;;17.80;;
20497;SDS011;10407;53.238;10.448;2022-12-18T00:16:40;32.95;;;17.40;;
20497;SDS011;10407;53.238;10.448;2022-12-18T00:19:13;38.02;;;20.65;;
20497;SDS011;10407;53.238;10.448;2022-12-18T00:21:41;34.88;;;19.23;;
20497;SDS011;10407;53.238;10.448;2022-12-18T00:24:10;29.05;;;16.52;;
20497;SDS011;10407;53.238;10.448;2022-12-18T00:26:38;32.13;;;18.05;;
20497;SDS011;10407;53.238;10.448;2022-12-18T00:29:07;30.77;;;16.67;;
20497;SDS011;10407;53.238;10.448;2022-12-18T00:31:39;27.80;;;17.12;;
20497;SDS011;10407;53.238;10.448;2022-12-18T00:34:09;32.05;;;17.00;;
20497;SDS011;10407;53.238;10.448;2022-12-18T00:36:38;27.58;;;16.42;;
20497;SDS011;10407;53.238;10.448;2022-12-18T00:39:06;30.85;;;19.32;;
20497;SDS011;10407;53.238;10.448;2022-12-18T00:41:34;31.35;;;17.37;;
20497;SDS011;10407;53.238;10.448;2022-12-18T00:44:20;27.25;;;16.80;;
20497;SDS011;10407;53.238;10.448;2022-12-18T00:46:47;28.23;;;17.12;;
20497;SDS011;10407;53.238;10.448;2022-12-18T00:49:20;31.55;;;18.52;;
20497;SDS011;10407;53.238;10.448;2022-12-18T00:51:45;30.30;;;18.05;;
20497;SDS011;10407;53.238;10.448;2022-12-18T00:54:13;31.33;;;17.27;;
20497;SDS011;10407;53.238;10.448;2022-12-18T00:56:42;32.15;;;18.30;;
20497;SDS011;10407;53.238;10.448;2022-12-18T00:59:09;25.02;;;15.05;;
20497;SDS011;10407;53.238;10.448;2022-12-18T01:01:37;30.75;;;16.50;;
20497;SDS011;10407;53.238;10.448;2022-12-18T01:04:04;30.35;;;15.95;;
20497;SDS011;10407;53.238;10.448;2022-12-18T01:06:32;24.60;;;17.05;;
20497;SDS011;10407;53.238;10.448;2022-12-18T01:09:00;30.48;;;16.70;;
20497;SDS011;10407;53.238;10.448;2022-12-18T01:11:28;28.07;;;15.55;;
20497;SDS011;10407;53.238;10.448;2022-12-18T01:13:55;28.98;;;16.17;;
20497;SDS011;10407;53.238;10.448;2022-12-18T01:16:23;30.95;;;15.75;;
20497;SDS011;10407;53.238;10.448;2022-12-18T01:18:51;35.00;;;18.95;;
20497;SDS011;10407;53.238;10.448;2022-12-18T01:21:21;31.65;;;16.87;;
20497;SDS011;10407;53.238;10.448;2022-12-18T01:23:52;38.48;;;18.87;;
20497;SDS011;10407;53.238;10.448;2022-12-18T01:26:21;32.08;;;19.12;;
20497;SDS011;10407;53.238;10.448;2022-12-18T01:28:49;29.32;;;17.55;;
20497;SDS011;10407;53.238;10.448;2022-12-18T01:31:18;34.03;;;18.40;;
20497;SDS011;10407;53.238;10.448;2022-12-18T01:33:48;27.10;;;16.50;;
20497;SDS011;10407;53.238;10.448;2022-12-18T01:36:29;37.35;;;18.50;;
20497;SDS011;10407;53.238;10.448;2022-12-18T01:38:59;31.65;;;16.97;;
20497;SDS011;10407;53.238;10.448;2022-12-18T01:41:29;33.92;;;18.77;;
20497;SDS011;10407;53.238;10.448;2022-12-18T01:47:30;32.48;;;17.20;;
20497;SDS011;10407;53.238;10.448;2022-12-18T01:50:27;32.35;;;18.50;;
20497;SDS011;10407;53.238;10.448;2022-12-18T01:53:20;30.85;;;18.40;;
20497;SDS011;10407;53.238;10.448;2022-12-18T01:55:35;30.77;;;17.57;;
20497;SDS011;10407;53.238;10.448;2022-12-18T01:58:05;31.68;;;16.52;;
20497;SDS011;10407;53.238;10.448;2022-12-18T02:00:32;30.25;;;17.95;;
20497;SDS011;10407;53.238;10.448;2022-12-18T02:03:00;36.08;;;18.62;;
20497;SDS011;10407;53.238;10.448;2022-12-18T02:05:36;29.63;;;18.12;;
20497;SDS011;10407;53.238;10.448;2022-12-18T02:08:26;33.00;;;18.85;;
20497;SDS011;10407;53.238;10.448;2022-12-18T02:19:47;36.70;;;19.65;;
20497;SDS011;10407;53.238;10.448;2022-12-18T02:22:29;29.65;;;18.82;;
20497;SDS011;10407;53.238;10.448;2022-12-18T02:27:45;34.75;;;18.07;;
20497;SDS011;10407;53.238;10.448;2022-12-18T02:30:15;28.70;;;17.85;;
20497;SDS011;10407;53.238;10.448;2022-12-18T02:32:45;34.63;;;17.80;;
20497;SDS011;10407;53.238;10.448;2022-12-18T02:35:20;37.85;;;17.40;;
20497;SDS011;10407;53.238;10.448;2022-12-18T02:37:51;31.77;;;17.40;;
20497;SDS011;10407;53.238;10.448;2022-12-18T02:40:19;34.40;;;19.57;;
20497;SDS011;10407;53.238;10.448;2022-12-18T02:42:50;31.42;;;18.50;;
20497;SDS011;10407;53.238;10.448;2022-12-18T02:45:18;33.58;;;18.40;;
20497;SDS011;10407;53.238;10.448;2022-12-18T02:47:46;39.35;;;18.55;;
20497;SDS011;10407;53.238;10.448;2022-12-18T02:50:22;38.35;;;20.35;;
20497;SDS011;10407;53.238;10.448;2022-12-18T02:58:27;41.33;;;19.40;;
20497;SDS011;10407;53.238;10.448;2022-12-18T03:01:14;30.27;;;17.30;;
20497;SDS011;10407;53.238;10.448;2022-12-18T03:03:51;39.40;;;19.02;;
20497;SDS011;10407;53.238;10.448;2022-12-18T03:06:25;33.20;;;19.12;;
20497;SDS011;10407;53.238;10.448;2022-12-18T03:08:58;35.75;;;19.85;;
20497;SDS011;10407;53.238;10.448;2022-12-18T03:11:28;35.50;;;18.57;;
20497;SDS011;10407;53.238;10.448;2022-12-18T03:14:16;34.83;;;18.55;;
20497;SDS011;10407;53.238;10.448;2022-12-18T03:16:46;33.35;;;18.55;;
20497;SDS011;10407;53.238;10.448;2022-12-18T03:19:18;45.05;;;20.80;;
20497;SDS011;10407;53.238;10.448;2022-12-18T03:21:49;35.03;;;20.75;;
20497;SDS011;10407;53.238;10.448;2022-12-18T03:24:18;30.15;;;17.90;;
20497;SDS011;10407;53.238;10.448;2022-12-18T03:26:48;31.85;;;18.35;;
20497;SDS011;10407;53.238;10.448;2022-12-18T03:29:26;32.85;;;17.37;;
20497;SDS011;10407;53.238;10.448;2022-12-18T03:31:53;31.68;;;18.80;;
20497;SDS011;10407;53.238;10.448;2022-12-18T03:34:28;33.75;;;18.62;;
20497;SDS011;10407;53.238;10.448;2022-12-18T03:36:52;27.70;;;17.57;;
20497;SDS011;10407;53.238;10.448;2022-12-18T03:39:20;30.15;;;17.82;;
20497;SDS011;10407;53.238;10.448;2022-12-18T03:41:51;31.27;;;18.82;;
20497;SDS011;10407;53.238;10.448;2022-12-18T03:47:16;36.95;;;18.10;;
20497;SDS011;10407;53.238;10.448;2022-12-18T03:49:59;31.40;;;19.27;;
20497;SDS011;10407;53.238;10.448;2022-12-18T03:52:37;37.65;;;20.72;;
20497;SDS011;10407;53.238;10.448;2022-12-18T03:55:01;36.35;;;19.27;;
20497;SDS011;10407;53.238;10.448;2022-12-18T03:57:32;40.00;;;19.57;;
20497;SDS011;10407;53.238;10.448;2022-12-18T04:00:02;38.10;;;20.45;;
20497;SDS011;10407;53.238;10.448;2022-12-18T04:02:30;34.90;;;19.98;;
20497;SDS011;10407;53.238;10.448;2022-12-18T04:05:01;32.53;;;18.80;;
20497;SDS011;10407;53.238;10.448;2022-12-18T04:07:31;37.33;;;20.27;;
20497;SDS011;10407;53.238;10.448;2022-12-18T04:09:59;35.33;;;19.70;;
20497;SDS011;10407;53.238;10.448;2022-12-18T04:12:30;32.70;;;18.50;;
20497;SDS011;10407;53.238;10.448;2022-12-18T04:14:57;41.20;;;19.50;;
20497;SDS011;10407;53.238;10.448;2022-12-18T04:17:25;34.85;;;19.55;;
20497;SDS011;10407;53.238;10.448;2022-12-18T04:19:52;33.58;;;18.05;;
20497;SDS011;10407;53.238;10.448;2022-12-18T04:22:20;40.48;;;19.90;;
20497;SDS011;10407;53.238;10.448;2022-12-18T04:24:47;39.42;;;19.25;;
20497;SDS011;10407;53.238;10.448;2022-12-18T04:27:15;38.05;;;18.60;;
20497;SDS011;10407;53.238;10.448;2022-12-18T04:29:42;39.15;;;19.62;;
20497;SDS011;10407;53.238;10.448;2022-12-18T04:32:10;32.73;;;19.10;;
20497;SDS011;10407;53.238;10.448;2022-12-18T04:34:37;33.55;;;18.30;;
20497;SDS011;10407;53.238;10.448;2022-12-18T04:37:05;34.05;;;19.82;;
20497;SDS011;10407;53.238;10.448;2022-12-18T04:39:33;34.23;;;17.73;;
20497;SDS011;10407;53.238;10.448;2022-12-18T04:42:01;39.80;;;19.42;;
20497;SDS011;10407;53.238;10.448;2022-12-18T04:44:29;39.98;;;19.12;;
20497;SDS011;10407;53.238;10.448;2022-12-18T04:46:56;37.00;;;20.37;;
20497;SDS011;10407;53.238;10.448;2022-12-18T04:49:24;38.63;;;21.15;;
20497;SDS011;10407;53.238;10.448;2022-12-18T04:51:51;37.03;;;20.97;;
20497;SDS011;10407;53.238;10.448;2022-12-18T04:54:19;33.80;;;19.37;;
20497;SDS011;10407;53.238;10.448;2022-12-18T04:56:47;38.38;;;21.12;;
20497;SDS011;10407;53.238;10.448;2022-12-18T04:59:14;40.08;;;19.52;;
20497;SDS011;10407;53.238;10.448;2022-12-18T05:01:42;34.83;;;18.48;;
20497;SDS011;10407;53.238;10.448;2022-12-18T05:04:09;32.50;;;18.67;;
20497;SDS011;10407;53.238;10.448;2022-12-18T05:06:37;38.13;;;20.52;;
20497;SDS011;10407;53.238;10.448;2022-12-18T05:09:04;31.77;;;19.07;;
20497;SDS011;10407;53.238;10.448;2022-12-18T05:11:32;33.92;;;20.15;;
20497;SDS011;10407;53.238;10.448;2022-12-18T05:14:02;37.67;;;19.82;;
20497;SDS011;10407;53.238;10.448;2022-12-18T05:16:30;36.28;;;18.67;;
20497;SDS011;10407;53.238;10.448;2022-12-18T05:18:57;40.63;;;18.40;;
20497;SDS011;10407;53.238;10.448;2022-12-18T05:21:25;31.87;;;19.15;;
20497;SDS011;10407;53.238;10.448;2022-12-18T05:23:52;38.58;;;18.67;;
20497;SDS011;10407;53.238;10.448;2022-12-18T05:26:20;40.20;;;19.57;;
20497;SDS011;10407;53.238;10.448;2022-12-18T05:28:47;32.85;;;18.67;;
20497;SDS011;10407;53.238;10.448;2022-12-18T05:31:15;36.83;;;19.42;;
20497;SDS011;10407;53.238;10.448;2022-12-18T05:33:43;39.33;;;19.27;;
20497;SDS011;10407;53.238;10.448;2022-12-18T05:36:10;33.70;;;18.12;;
20497;SDS011;10407;53.238;10.448;2022-12-18T05:38:38;41.48;;;18.65;;
20497;SDS011;10407;53.238;10.448;2022-12-18T05:41:07;39.40;;;17.77;;
20497;SDS011;10407;53.238;10.448;2022-12-18T05:43:35;34.83;;;19.23;;
20497;SDS011;10407;53.238;10.448;2022-12-18T05:46:05;41.73;;;19.67;;
20497;SDS011;10407;53.238;10.448;2022-12-18T05:48:34;33.02;;;17.98;;
20497;SDS011;10407;53.238;10.448;2022-12-18T05:51:08;35.15;;;18.40;;
20497;SDS011;10407;53.238;10.448;2022-12-18T05:53:38;42.48;;;20.10;;
20497;SDS011;10407;53.238;10.448;2022-12-18T05:56:07;32.25;;;18.75;;
20497;SDS011;10407;53.238;10.448;2022-12-18T05:58:36;32.15;;;18.95;;
20497;SDS011;10407;53.238;10.448;2022-12-18T06:01:11;34.50;;;19.15;;
20497;SDS011;10407;53.238;10.448;2022-12-18T06:03:40;33.48;;;18.42;;
20497;SDS011;10407;53.238;10.448;2022-12-18T06:06:18;33.48;;;17.85;;
20497;SDS011;10407;53.238;10.448;2022-12-18T06:08:48;40.52;;;16.90;;
20497;SDS011;10407;53.238;10.448;2022-12-18T06:11:17;31.33;;;17.95;;
20497;SDS011;10407;53.238;10.448;2022-12-18T06:13:49;31.52;;;18.45;;
20497;SDS011;10407;53.238;10.448;2022-12-18T06:16:19;33.98;;;17.67;;
20497;SDS011;10407;53.238;10.448;2022-12-18T06:18:46;37.17;;;19.45;;
20497;SDS011;10407;53.238;10.448;2022-12-18T06:21:14;37.58;;;18.85;;
20497;SDS011;10407;53.238;10.448;2022-12-18T06:23:41;40.08;;;20.23;;
20497;SDS011;10407;53.238;10.448;2022-12-18T06:26:10;36.20;;;18.17;;
20497;SDS011;10407;53.238;10.448;2022-12-18T06:28:38;39.13;;;20.40;;
20497;SDS011;10407;53.238;10.448;2022-12-18T06:31:07;34.60;;;19.90;;
20497;SDS011;10407;53.238;10.448;2022-12-18T06:33:35;36.93;;;19.77;;
20497;SDS011;10407;53.238;10.448;2022-12-18T06:36:05;36.08;;;17.85;;
20497;SDS011;10407;53.238;10.448;2022-12-18T06:38:34;41.58;;;20.95;;
20497;SDS011;10407;53.238;10.448;2022-12-18T06:41:07;39.40;;;18.17;;
20497;SDS011;10407;53.238;10.448;2022-12-18T06:43:35;41.23;;;19.77;;
20497;SDS011;10407;53.238;10.448;2022-12-18T06:46:04;37.83;;;18.75;;
20497;SDS011;10407;53.238;10.448;2022-12-18T06:48:31;37.30;;;20.65;;
20497;SDS011;10407;53.238;10.448;2022-12-18T06:50:59;38.05;;;20.20;;
20497;SDS011;10407;53.238;10.448;2022-12-18T06:53:27;37.13;;;19.67;;
20497;SDS011;10407;53.238;10.448;2022-12-18T06:56:01;37.35;;;19.10;;
20497;SDS011;10407;53.238;10.448;2022-12-18T06:58:29;42.95;;;21.05;;
20497;SDS011;10407;53.238;10.448;2022-12-18T07:01:00;41.08;;;19.67;;
20497;SDS011;10407;53.238;10.448;2022-12-18T07:03:29;37.13;;;18.73;;
20497;SDS011;10407;53.238;10.448;2022-12-18T07:05:57;39.33;;;20.72;;
20497;SDS011;10407;53.238;10.448;2022-12-18T07:08:24;41.83;;;21.75;;
20497;SDS011;10407;53.238;10.448;2022-12-18T07:10:52;37.10;;;19.32;;
20497;SDS011;10407;53.238;10.448;2022-12-18T07:13:20;39.78;;;19.17;;
20497;SDS011;10407;53.238;10.448;2022-12-18T07:15:47;40.70;;;19.62;;
20497;SDS011;10407;53.238;10.448;2022-12-18T07:18:15;45.28;;;22.35;;
20497;SDS011;10407;53.238;10.448;2022-12-18T07:20:42;43.65;;;22.73;;
20497;SDS011;10407;53.238;10.448;2022-12-18T07:23:10;39.58;;;20.75;;
20497;SDS011;10407;53.238;10.448;2022-12-18T07:25:37;34.60;;;18.67;;
20497;SDS011;10407;53.238;10.448;2022-12-18T07:28:05;38.45;;;21.35;;
20497;SDS011;10407;53.238;10.448;2022-12-18T07:30:33;41.58;;;19.35;;
20497;SDS011;10407;53.238;10.448;2022-12-18T07:33:02;38.17;;;19.65;;
20497;SDS011;10407;53.238;10.448;2022-12-18T07:35:29;35.60;;;18.77;;
20497;SDS011;10407;53.238;10.448;2022-12-18T07:37:57;35.83;;;19.87;;
20497;SDS011;10407;53.238;10.448;2022-12-18T07:40:27;35.08;;;19.42;;
20497;SDS011;10407;53.238;10.448;2022-12-18T07:42:54;39.10;;;20.23;;
20497;SDS011;10407;53.238;10.448;2022-12-18T07:45:22;39.50;;;21.52;;
20497;SDS011;10407;53.238;10.448;2022-12-18T07:47:49;37.03;;;19.80;;
20497;SDS011;10407;53.238;10.448;2022-12-18T07:50:17;33.70;;;19.30;;
20497;SDS011;10407;53.238;10.448;2022-12-18T07:52:45;39.73;;;20.30;;
20497;SDS011;10407;53.238;10.448;2022-12-18T07:55:12;41.08;;;21.20;;
20497;SDS011;10407;53.238;10.448;2022-12-18T07:57:40;38.55;;;19.85;;
20497;SDS011;10407;53.238;10.448;2022-12-18T08:00:08;38.30;;;20.10;;
20497;SDS011;10407;53.238;10.448;2022-12-18T08:02:36;32.78;;;20.25;;
20497;SDS011;10407;53.238;10.448;2022-12-18T08:05:03;38.40;;;19.40;;
20497;SDS011;10407;53.238;10.448;2022-12-18T08:07:31;35.28;;;19.02;;
20497;SDS011;10407;53.238;10.448;2022-12-18T08:09:59;42.33;;;20.20;;
20497;SDS011;10407;53.238;10.448;2022-12-18T08:12:26;41.85;;;20.95;;
20497;SDS011;10407;53.238;10.448;2022-12-18T08:14:54;32.50;;;16.23;;
20497;SDS011;10407;53.238;10.448;2022-12-18T08:17:22;34.55;;;18.48;;
20497;SDS011;10407;53.238;10.448;2022-12-18T08:19:49;34.18;;;18.10;;
20497;SDS011;10407;53.238;10.448;2022-12-18T08:22:17;39.23;;;19.10;;
20497;SDS011;10407;53.238;10.448;2022-12-18T08:24:44;37.63;;;17.60;;
20497;SDS011;10407;53.238;10.448;2022-12-18T08:27:12;36.75;;;18.00;;
20497;SDS011;10407;53.238;10.448;2022-12-18T08:29:40;34.95;;;17.48;;
20497;SDS011;10407;53.238;10.448;2022-12-18T08:32:07;31.47;;;15.50;;
20497;SDS011;10407;53.238;10.448;2022-12-18T08:34:35;31.48;;;16.82;;
20497;SDS011;10407;53.238;10.448;2022-12-18T08:37:03;34.60;;;17.27;;
20497;SDS011;10407;53.238;10.448;2022-12-18T08:39:30;38.78;;;20.15;;
20497;SDS011;10407;53.238;10.448;2022-12-18T08:41:58;33.83;;;17.92;;
20497;SDS011;10407;53.238;10.448;2022-12-18T08:44:43;35.60;;;18.62;;
20497;SDS011;10407;53.238;10.448;2022-12-18T08:47:11;34.88;;;18.85;;
20497;SDS011;10407;53.238;10.448;2022-12-18T08:49:38;40.03;;;19.10;;
20497;SDS011;10407;53.238;10.448;2022-12-18T08:52:06;41.00;;;19.97;;
20497;SDS011;10407;53.238;10.448;2022-12-18T08:54:34;38.60;;;17.00;;
20497;SDS011;10407;53.238;10.448;2022-12-18T08:57:02;38.02;;;19.55;;
20497;SDS011;10407;53.238;10.448;2022-12-18T08:59:29;36.77;;;20.50;;
20497;SDS011;10407;53.238;10.448;2022-12-18T09:01:57;35.43;;;18.97;;
20497;SDS011;10407;53.238;10.448;2022-12-18T09:04:25;35.23;;;18.82;;
20497;SDS011;10407;53.238;10.448;2022-12-18T09:06:52;34.20;;;17.77;;
20497;SDS011;10407;53.238;10.448;2022-12-18T09:09:21;38.80;;;20.00;;
20497;SDS011;10407;53.238;10.448;2022-12-18T09:11:48;41.13;;;20.62;;
20497;SDS011;10407;53.238;10.448;2022-12-18T09:14:16;38.13;;;19.23;;
20497;SDS011;10407;53.238;10.448;2022-12-18T09:16:44;36.50;;;19.60;;
20497;SDS011;10407;53.238;10.448;2022-12-18T09:19:11;34.93;;;19.20;;
20497;SDS011;10407;53.238;10.448;2022-12-18T09:21:39;38.00;;;17.60;;
20497;SDS011;10407;53.238;10.448;2022-12-18T09:24:08;39.53;;;17.53;;
20497;SDS011;10407;53.238;10.448;2022-12-18T09:26:37;31.47;;;18.27;;
20497;SDS011;10407;53.238;10.448;2022-12-18T09:29:04;38.07;;;18.77;;
20497;SDS011;10407;53.238;10.448;2022-12-18T09:31:34;37.37;;;18.10;;
20497;SDS011;10407;53.238;10.448;2022-12-18T09:34:06;36.13;;;18.73;;
20497;SDS011;10407;53.238;10.448;2022-12-18T09:36:34;39.10;;;19.27;;
20497;SDS011;10407;53.238;10.448;2022-12-18T09:39:02;36.30;;;19.50;;
20497;SDS011;10407;53.238;10.448;2022-12-18T09:41:41;36.40;;;17.73;;
20497;SDS011;10407;53.238;10.448;2022-12-18T09:47:07;38.07;;;19.37;;
20497;SDS011;10407;53.238;10.448;2022-12-18T09:49:29;40.70;;;19.83;;
20497;SDS011;10407;53.238;10.448;2022-12-18T09:52:03;32.33;;;17.30;;
20497;SDS011;10407;53.238;10.448;2022-12-18T09:54:36;37.27;;;19.63;;
20497;SDS011;10407;53.238;10.448;2022-12-18T09:57:13;36.00;;;17.67;;
20497;SDS011;10407;53.238;10.448;2022-12-18T09:59:43;31.90;;;16.70;;
20497;SDS011;10407;53.238;10.448;2022-12-18T10:02:20;36.50;;;18.30;;
20497;SDS011;10407;53.238;10.448;2022-12-18T10:04:54;35.57;;;17.77;;
20497;SDS011;10407;53.238;10.448;2022-12-18T10:10:26;45.40;;;20.20;;
20497;SDS011;10407;53.238;10.448;2022-12-18T10:13:00;39.80;;;18.90;;
20497;SDS011;10407;53.238;10.448;2022-12-18T10:15:27;38.90;;;18.80;;
20497;SDS011;10407;53.238;10.448;2022-12-18T10:18:07;34.80;;;17.10;;
20497;SDS011;10407;53.238;10.448;2022-12-18T10:20:41;41.80;;;19.73;;
20497;SDS011;10407;53.238;10.448;2022-12-18T10:23:32;32.07;;;17.50;;
20497;SDS011;10407;53.238;10.448;2022-12-18T10:26:00;32.83;;;16.63;;
20497;SDS011;10407;53.238;10.448;2022-12-18T10:28:30;42.53;;;18.47;;
20497;SDS011;10407;53.238;10.448;2022-12-18T10:31:00;39.27;;;17.47;;
20497;SDS011;10407;53.238;10.448;2022-12-18T10:33:29;35.30;;;17.77;;
20497;SDS011;10407;53.238;10.448;2022-12-18T10:35:59;37.17;;;18.00;;
20497;SDS011;10407;53.238;10.448;2022-12-18T10:38:28;39.53;;;18.50;;
20497;SDS011;10407;53.238;10.448;2022-12-18T10:41:43;32.60;;;16.80;;
20497;SDS011;10407;53.238;10.448;2022-12-18T10:43:35;40.67;;;18.43;;
20497;SDS011;10407;53.238;10.448;2022-12-18T10:46:05;34.83;;;16.97;;
20497;SDS011;10407;53.238;10.448;2022-12-18T10:48:47;39.27;;;19.63;;
20497;SDS011;10407;53.238;10.448;2022-12-18T10:51:33;38.03;;;17.60;;
20497;SDS011;10407;53.238;10.448;2022-12-18T10:54:04;40.07;;;18.17;;
20497;SDS011;10407;53.238;10.448;2022-12-18T10:56:33;40.57;;;17.83;;
20497;SDS011;10407;53.238;10.448;2022-12-18T10:59:07;32.33;;;17.87;;
20497;SDS011;10407;53.238;10.448;2022-12-18T11:01:52;36.40;;;18.50;;
20497;SDS011;10407;53.238;10.448;2022-12-18T11:04:25;31.50;;;16.90;;
20497;SDS011;10407;53.238;10.448;2022-12-18T11:06:59;41.97;;;17.83;;
20497;SDS011;10407;53.238;10.448;2022-12-18T11:09:32;39.57;;;17.27;;
20497;SDS011;10407;53.238;10.448;2022-12-18T11:12:02;35.07;;;17.43;;
20497;SDS011;10407;53.238;10.448;2022-12-18T11:14:33;38.97;;;18.90;;
20497;SDS011;10407;53.238;10.448;2022-12-18T11:17:19;35.80;;;17.70;;
20497;SDS011;10407;53.238;10.448;2022-12-18T11:20:02;39.10;;;16.57;;
20497;SDS011;10407;53.238;10.448;2022-12-18T11:22:55;40.40;;;17.43;;
20497;SDS011;10407;53.238;10.448;2022-12-18T11:25:24;35.97;;;16.67;;
20497;SDS011;10407;53.238;10.448;2022-12-18T11:27:56;35.17;;;16.33;;
20497;SDS011;10407;53.238;10.448;2022-12-18T11:30:29;36.47;;;17.13;;
20497;SDS011;10407;53.238;10.448;2022-12-18T11:33:03;35.67;;;16.87;;
20497;SDS011;10407;53.238;10.448;2022-12-18T11:41:24;37.07;;;17.53;;
20497;SDS011;10407;53.238;10.448;2022-12-18T11:44:32;36.33;;;17.90;;
20497;SDS011;10407;53.238;10.448;2022-12-18T11:47:03;32.23;;;17.27;;
20497;SDS011;10407;53.238;10.448;2022-12-18T11:49:34;31.70;;;16.93;;
20497;SDS011;10407;53.238;10.448;2022-12-18T11:54:52;38.40;;;18.23;;
20497;SDS011;10407;53.238;10.448;2022-12-18T11:57:31;37.90;;;18.30;;
20497;SDS011;10407;53.238;10.448;2022-12-18T12:00:12;37.70;;;17.77;;
20497;SDS011;10407;53.238;10.448;2022-12-18T12:03:06;37.17;;;18.17;;
20497;SDS011;10407;53.238;10.448;2022-12-18T12:11:25;41.77;;;19.10;;
20497;SDS011;10407;53.238;10.448;2022-12-18T12:14:02;33.20;;;17.90;;
20497;SDS011;10407;53.238;10.448;2022-12-18T12:16:40;43.10;;;18.17;;
20497;SDS011;10407;53.238;10.448;2022-12-18T12:19:34;41.90;;;18.20;;
20497;SDS011;10407;53.238;10.448;2022-12-18T12:24:56;33.27;;;17.30;;
20497;SDS011;10407;53.238;10.448;2022-12-18T12:30:02;41.00;;;17.60;;
20497;SDS011;10407;53.238;10.448;2022-12-18T12:38:00;50.30;;;16.97;;
20497;SDS011;10407;53.238;10.448;2022-12-18T12:40:27;40.63;;;18.43;;
20497;SDS011;10407;53.238;10.448;2022-12-18T12:43:01;42.13;;;18.80;;
20497;SDS011;10407;53.238;10.448;2022-12-18T12:45:46;42.77;;;18.00;;
20497;SDS011;10407;53.238;10.448;2022-12-18T12:48:27;42.70;;;17.33;;
20497;SDS011;10407;53.238;10.448;2022-12-18T12:51:06;45.33;;;19.00;;
20497;SDS011;10407;53.238;10.448;2022-12-18T12:53:37;43.27;;;19.80;;
20497;SDS011;10407;53.238;10.448;2022-12-18T12:56:07;40.90;;;18.50;;
20497;SDS011;10407;53.238;10.448;2022-12-18T12:58:45;37.13;;;17.90;;
20497;SDS011;10407;53.238;10.448;2022-12-18T13:06:43;50.77;;;20.37;;
20497;SDS011;10407;53.238;10.448;2022-12-18T13:09:11;42.23;;;20.23;;
20497;SDS011;10407;53.238;10.448;2022-12-18T13:11:42;44.30;;;20.00;;
20497;SDS011;10407;53.238;10.448;2022-12-18T13:14:36;44.23;;;20.50;;
20497;SDS011;10407;53.238;10.448;2022-12-18T13:19:51;50.47;;;20.83;;
20497;SDS011;10407;53.238;10.448;2022-12-18T13:22:43;45.93;;;20.80;;
20497;SDS011;10407;53.238;10.448;2022-12-18T13:25:34;46.10;;;21.77;;
20497;SDS011;10407;53.238;10.448;2022-12-18T13:41:48;61.73;;;25.90;;
20497;SDS011;10407;53.238;10.448;2022-12-18T13:44:25;58.50;;;24.02;;
20497;SDS011;10407;53.238;10.448;2022-12-18T13:47:00;56.70;;;24.63;;
20497;SDS011;10407;53.238;10.448;2022-12-18T13:49:40;50.83;;;21.80;;
20497;SDS011;10407;53.238;10.448;2022-12-18T13:52:17;51.80;;;21.17;;
20497;SDS011;10407;53.238;10.448;2022-12-18T13:54:57;53.67;;;21.80;;
20497;SDS011;10407;53.238;10.448;2022-12-18T13:57:31;42.90;;;20.70;;
20497;SDS011;10407;53.238;10.448;2022-12-18T13:59:57;46.00;;;22.00;;
20497;SDS011;10407;53.238;10.448;2022-12-18T14:02:27;44.77;;;19.27;;
20497;SDS011;10407;53.238;10.448;2022-12-18T14:04:55;48.20;;;22.15;;
20497;SDS011;10407;53.238;10.448;2022-12-18T14:07:24;59.13;;;22.90;;
20497;SDS011;10407;53.238;10.448;2022-12-18T14:12:29;54.47;;;23.00;;
20497;SDS011;10407;53.238;10.448;2022-12-18T14:16:03;52.33;;;22.00;;
20497;SDS011;10407;53.238;10.448;2022-12-18T14:18:41;55.17;;;21.07;;
20497;SDS011;10407;53.238;10.448;2022-12-18T14:20:26;58.47;;;23.90;;
20497;SDS011;10407;53.238;10.448;2022-12-18T14:22:56;51.63;;;21.42;;
20497;SDS011;10407;53.238;10.448;2022-12-18T14:25:31;40.37;;;20.53;;
20497;SDS011;10407;53.238;10.448;2022-12-18T14:30:39;46.55;;;19.80;;
20497;SDS011;10407;53.238;10.448;2022-12-18T14:35:41;48.55;;;20.00;;
20497;SDS011;10407;53.238;10.448;2022-12-18T14:38:30;44.88;;;20.50;;
20497;SDS011;10407;53.238;10.448;2022-12-18T14:41:00;53.13;;;22.00;;
20497;SDS011;10407;53.238;10.448;2022-12-18T14:43:39;48.05;;;20.45;;
20497;SDS011;10407;53.238;10.448;2022-12-18T14:49:50;49.63;;;20.35;;
20497;SDS011;10407;53.238;10.448;2022-12-18T14:51:53;44.83;;;20.95;;
20497;SDS011;10407;53.238;10.448;2022-12-18T14:54:22;41.15;;;18.65;;
20497;SDS011;10407;53.238;10.448;2022-12-18T14:56:52;53.38;;;22.10;;
20497;SDS011;10407;53.238;10.448;2022-12-18T14:59:27;50.12;;;21.70;;
20497;SDS011;10407;53.238;10.448;2022-12-18T15:04:34;48.98;;;21.42;;
20497;SDS011;10407;53.238;10.448;2022-12-18T15:12:40;46.18;;;20.05;;
20497;SDS011;10407;53.238;10.448;2022-12-18T15:18:03;38.80;;;20.65;;
20497;SDS011;10407;53.238;10.448;2022-12-18T15:20:39;43.30;;;20.35;;
20497;SDS011;10407;53.238;10.448;2022-12-18T15:25:54;41.80;;;19.55;;
20497;SDS011;10407;53.238;10.448;2022-12-18T15:28:26;43.10;;;21.15;;
20497;SDS011;10407;53.238;10.448;2022-12-18T15:34:27;37.75;;;19.52;;
20497;SDS011;10407;53.238;10.448;2022-12-18T15:36:22;48.10;;;19.82;;
20497;SDS011;10407;53.238;10.448;2022-12-18T15:41:27;36.07;;;17.70;;
20497;SDS011;10407;53.238;10.448;2022-12-18T15:43:54;46.42;;;20.70;;
20497;SDS011;10407;53.238;10.448;2022-12-18T15:46:23;41.58;;;19.45;;
20497;SDS011;10407;53.238;10.448;2022-12-18T15:48:53;35.60;;;17.62;;
20497;SDS011;10407;53.238;10.448;2022-12-18T15:51:28;42.83;;;18.60;;
20497;SDS011;10407;53.238;10.448;2022-12-18T15:54:02;39.73;;;19.55;;
20497;SDS011;10407;53.238;10.448;2022-12-18T15:56:31;45.15;;;20.48;;
20497;SDS011;10407;53.238;10.448;2022-12-18T15:59:18;40.80;;;20.80;;
20497;SDS011;10407;53.238;10.448;2022-12-18T16:01:47;37.25;;;17.55;;
20497;SDS011;10407;53.238;10.448;2022-12-18T16:04:18;34.55;;;16.93;;
20497;SDS011;10407;53.238;10.448;2022-12-18T16:06:49;40.80;;;19.95;;
20497;SDS011;10407;53.238;10.448;2022-12-18T16:09:18;39.35;;;21.00;;
20497;SDS011;10407;53.238;10.448;2022-12-18T16:11:46;46.83;;;19.35;;
20497;SDS011;10407;53.238;10.448;2022-12-18T16:14:20;35.03;;;17.30;;
20497;SDS011;10407;53.238;10.448;2022-12-18T16:16:57;33.42;;;17.45;;
20497;SDS011;10407;53.238;10.448;2022-12-18T16:19:25;34.15;;;17.10;;
20497;SDS011;10407;53.238;10.448;2022-12-18T16:21:54;36.48;;;18.10;;